createdAt,value
2019-05-25T00:01:58.050Z,97118.00
2019-05-25T00:04:29.379Z,97104.00
2019-05-25T00:07:01.029Z,97117.00
2019-05-25T00:09:32.240Z,97106.00
2019-05-25T00:12:03.553Z,97108.00
2019-05-25T00:14:34.770Z,97114.00
2019-05-25T00:17:06.365Z,97124.00
2019-05-25T00:19:37.963Z,97109.00
2019-05-25T00:22:09.060Z,97117.00
2019-05-25T00:24:40.764Z,97105.00
2019-05-25T00:27:12.522Z,97098.00
2019-05-25T00:29:43.833Z,97107.00
2019-05-25T00:32:15.004Z,97107.00
2019-05-25T00:34:47.466Z,97102.00
2019-05-25T00:37:21.014Z,97101.00
2019-05-25T00:39:52.195Z,97103.00
2019-05-25T00:42:23.514Z,97096.00
2019-05-25T00:44:54.813Z,97096.00
2019-05-25T00:47:26.022Z,97100.00
2019-05-25T00:49:57.375Z,97101.00
2019-05-25T00:52:28.923Z,97104.00
2019-05-25T00:55:00.324Z,97096.00
2019-05-25T00:57:31.531Z,97093.00
2019-05-25T01:00:03.015Z,97093.00
2019-05-25T01:02:34.855Z,97089.00
2019-05-25T01:05:06.703Z,97094.00
2019-05-25T01:07:38.165Z,97097.00
2019-05-25T01:10:09.830Z,97103.00
2019-05-25T01:12:41.598Z,97093.00
2019-05-25T01:15:14.522Z,97099.00
2019-05-25T01:17:46.142Z,97083.00
2019-05-25T01:20:17.825Z,97089.00
2019-05-25T01:22:49.485Z,97090.00
2019-05-25T01:25:21.420Z,97086.00
2019-05-25T01:27:52.608Z,97086.00
2019-05-25T01:30:23.886Z,97083.00
2019-05-25T01:32:55.079Z,97093.00
2019-05-25T01:35:26.704Z,97097.00
2019-05-25T01:37:57.923Z,97088.00
2019-05-25T01:40:29.210Z,97089.00
2019-05-25T01:43:00.390Z,97081.00
2019-05-25T01:45:31.526Z,97082.00
2019-05-25T01:48:02.797Z,97085.00
2019-05-25T01:50:34.489Z,97077.00
2019-05-25T01:53:06.104Z,97084.00
2019-05-25T01:55:37.399Z,97091.00
2019-05-25T01:58:08.628Z,97094.00
2019-05-25T02:00:41.292Z,97098.00
2019-05-25T02:03:12.448Z,97090.00
2019-05-25T02:05:43.705Z,97074.00
2019-05-25T02:08:15.005Z,97092.00
2019-05-25T02:10:46.222Z,97086.00
2019-05-25T02:13:17.332Z,97079.00
2019-05-25T02:15:49.086Z,97083.00
2019-05-25T02:18:20.671Z,97086.00
2019-05-25T02:20:51.989Z,97084.00
2019-05-25T02:23:23.563Z,97082.00
2019-05-25T02:25:55.067Z,97085.00
2019-05-25T02:28:26.343Z,97080.00
2019-05-25T02:30:57.633Z,97083.00
2019-05-25T02:33:29.167Z,97084.00
2019-05-25T02:36:00.738Z,97082.00
2019-05-25T02:38:32.217Z,97086.00
2019-05-25T02:41:03.528Z,97089.00
2019-05-25T02:43:34.782Z,97091.00
2019-05-25T02:46:06.783Z,97095.00
2019-05-25T02:48:38.090Z,97090.00
2019-05-25T02:51:09.344Z,97105.00
2019-05-25T02:53:40.597Z,97093.00
2019-05-25T02:56:12.185Z,97093.00
2019-05-25T02:58:43.444Z,97082.00
2019-05-25T03:01:15.896Z,97084.00
2019-05-25T03:03:47.458Z,97088.00
2019-05-25T03:06:21.215Z,97089.00
2019-05-25T03:08:54.296Z,97096.00
2019-05-25T03:11:26.402Z,97093.00
2019-05-25T03:13:58.476Z,97097.00
2019-05-25T03:16:29.781Z,97096.00
2019-05-25T03:19:00.965Z,97098.00
2019-05-25T03:21:32.240Z,97099.00
2019-05-25T03:24:03.419Z,97105.00
2019-05-25T03:26:34.557Z,97105.00
2019-05-25T03:29:05.829Z,97110.00
2019-05-25T03:31:37.402Z,97111.00
2019-05-25T03:34:08.662Z,97108.00
2019-05-25T03:36:40.303Z,97111.00
2019-05-25T03:39:11.480Z,97110.00
2019-05-25T03:41:42.790Z,97113.00
2019-05-25T03:44:14.377Z,97110.00
2019-05-25T03:46:46.694Z,97106.00
2019-05-25T03:49:18.269Z,97101.00
2019-05-25T03:51:49.474Z,97098.00
2019-05-25T03:54:20.579Z,97104.00
2019-05-25T03:56:51.866Z,97119.00
2019-05-25T03:59:23.468Z,97119.00
2019-05-25T04:01:54.797Z,97118.00
2019-05-25T04:04:26.330Z,97107.00
2019-05-25T04:06:57.543Z,97116.00
2019-05-25T04:09:29.259Z,97115.00
2019-05-25T04:12:00.536Z,97103.00
2019-05-25T04:14:31.733Z,97123.00
2019-05-25T04:17:02.963Z,97112.00
2019-05-25T04:19:34.150Z,97114.00
2019-05-25T04:22:05.650Z,97121.00
2019-05-25T04:24:36.916Z,97142.00
2019-05-25T04:27:08.181Z,97131.00
2019-05-25T04:29:39.454Z,97123.00
2019-05-25T04:32:11.497Z,97123.00
2019-05-25T04:34:42.792Z,97114.00
2019-05-25T04:37:14.362Z,97118.00
2019-05-25T04:39:45.530Z,97121.00
2019-05-25T04:42:16.763Z,97117.00
2019-05-25T04:44:47.928Z,97127.00
2019-05-25T04:47:26.859Z,97117.00
2019-05-25T04:49:52.449Z,97128.00
2019-05-25T04:52:23.675Z,97135.00
2019-05-25T04:54:55.159Z,97135.00
2019-05-25T04:57:26.303Z,97137.00
2019-05-25T04:59:57.857Z,97129.00
2019-05-25T05:02:29.826Z,97131.00
2019-05-25T05:05:01.168Z,97126.00
2019-05-25T05:07:32.579Z,97133.00
2019-05-25T05:10:04.412Z,97128.00
2019-05-25T05:12:35.702Z,97129.00
2019-05-25T05:15:08.084Z,97122.00
2019-05-25T05:17:39.293Z,97131.00
2019-05-25T05:20:10.956Z,97128.00
2019-05-25T05:22:42.750Z,97145.00
2019-05-25T05:25:14.997Z,97145.00
2019-05-25T05:27:47.189Z,97107.00
2019-05-25T05:30:22.564Z,97148.00
2019-05-25T05:32:53.841Z,97148.00
2019-05-25T05:35:25.429Z,97150.00
2019-05-25T05:37:58.990Z,97150.00
2019-05-25T05:40:30.468Z,97152.00
2019-05-25T05:43:05.674Z,97145.00
2019-05-25T05:45:41.054Z,97160.00
2019-05-25T05:48:14.454Z,97160.00
2019-05-25T05:50:48.944Z,97155.00
2019-05-25T05:53:23.418Z,97159.00
2019-05-25T05:55:54.693Z,97160.00
2019-05-25T05:58:26.298Z,97164.00
2019-05-25T06:00:57.604Z,97170.00
2019-05-25T06:03:29.053Z,97165.00
2019-05-25T06:06:00.544Z,97177.00
2019-05-25T06:08:31.888Z,97165.00
2019-05-25T06:11:03.747Z,97163.00
2019-05-25T06:13:34.892Z,97161.00
2019-05-25T06:16:06.551Z,97172.00
2019-05-25T06:18:37.871Z,97167.00
2019-05-25T06:21:09.376Z,97173.00
2019-05-25T06:23:40.875Z,97174.00
2019-05-25T06:26:12.176Z,97168.00
2019-05-25T06:28:43.309Z,97180.00
2019-05-25T06:31:14.606Z,97181.00
2019-05-25T06:33:46.189Z,97187.00
2019-05-25T06:36:17.447Z,97182.00
2019-05-25T06:38:48.740Z,97192.00
2019-05-25T06:41:20.382Z,97195.00
2019-05-25T06:43:51.966Z,97191.00
2019-05-25T06:46:23.239Z,97197.00
2019-05-25T06:48:54.406Z,97195.00
2019-05-25T06:51:25.646Z,97203.00
2019-05-25T06:53:56.859Z,97201.00
2019-05-25T06:56:28.292Z,97193.00
2019-05-25T06:58:59.582Z,97198.00
2019-05-25T07:01:30.782Z,97199.00
2019-05-25T07:04:02.086Z,97201.00
2019-05-25T07:06:33.380Z,97199.00
2019-05-25T07:09:06.651Z,97103.00
2019-05-25T07:11:37.916Z,97200.00
2019-05-25T07:14:09.224Z,97203.00
2019-05-25T07:16:40.749Z,97203.00
2019-05-25T07:19:13.067Z,97211.00
2019-05-25T07:21:44.261Z,97204.00
2019-05-25T07:24:15.916Z,97210.00
2019-05-25T07:26:47.198Z,97224.00
2019-05-25T07:29:18.510Z,97218.00
2019-05-25T07:31:49.701Z,97229.00
2019-05-25T07:34:21.341Z,97228.00
2019-05-25T07:36:52.652Z,97226.00
2019-05-25T07:39:23.910Z,97220.00
2019-05-25T07:41:55.236Z,97227.00
2019-05-25T07:44:26.575Z,97224.00
2019-05-25T07:46:57.799Z,97218.00
2019-05-25T07:49:29.700Z,97219.00
2019-05-25T07:52:02.830Z,97216.00
2019-05-25T07:54:34.180Z,97224.00
2019-05-25T07:57:05.858Z,97226.00
2019-05-25T07:59:38.362Z,97233.00
2019-05-25T08:02:10.617Z,97232.00
2019-05-25T08:04:41.787Z,97240.00
2019-05-25T08:07:13.014Z,97228.00
2019-05-25T08:09:44.350Z,97232.00
2019-05-25T08:12:15.926Z,97227.00
2019-05-25T08:14:48.230Z,97228.00
2019-05-25T08:17:19.824Z,97239.00
2019-05-25T08:19:51.504Z,97235.00
2019-05-25T08:22:22.728Z,97232.00
2019-05-25T08:24:54.314Z,97237.00
2019-05-25T08:27:25.672Z,97232.00
2019-05-25T08:29:57.273Z,97241.00
2019-05-25T08:32:29.008Z,97240.00
2019-05-25T08:35:00.338Z,97245.00
2019-05-25T08:37:32.271Z,97242.00
2019-05-25T08:40:04.016Z,97241.00
2019-05-25T08:42:35.630Z,97240.00
2019-05-25T08:45:07.658Z,97233.00
2019-05-25T08:47:38.987Z,97231.00
2019-05-25T08:50:10.749Z,97230.00
2019-05-25T08:52:42.408Z,97228.00
2019-05-25T08:55:14.396Z,97219.00
2019-05-25T08:57:45.604Z,97225.00
2019-05-25T09:00:17.241Z,97232.00
2019-05-25T09:02:48.912Z,97238.00
2019-05-25T09:05:21.491Z,97227.00
2019-05-25T09:07:52.827Z,97225.00
2019-05-25T09:10:24.145Z,97226.00
2019-05-25T09:12:55.341Z,97222.00
2019-05-25T09:15:26.766Z,97227.00
2019-05-25T09:17:58.954Z,97241.00
2019-05-25T09:20:30.277Z,97236.00
2019-05-25T09:23:01.563Z,97238.00
2019-05-25T09:25:32.879Z,97231.00
2019-05-25T09:28:04.229Z,97233.00
2019-05-25T09:30:35.521Z,97227.00
2019-05-25T09:33:06.964Z,97226.00
2019-05-25T09:35:38.289Z,97234.00
2019-05-25T09:38:09.542Z,97236.00
2019-05-25T09:40:40.787Z,97230.00
2019-05-25T09:43:12.052Z,97226.00
2019-05-25T09:45:43.494Z,97237.00
2019-05-25T09:48:15.838Z,97237.00
2019-05-25T09:50:47.106Z,97245.00
2019-05-25T09:53:18.853Z,97235.00
2019-05-25T09:55:50.397Z,97240.00
2019-05-25T09:58:21.934Z,97243.00
2019-05-25T10:00:53.161Z,97245.00
2019-05-25T10:03:24.641Z,97245.00
2019-05-25T10:05:55.926Z,97238.00
2019-05-25T10:08:27.203Z,97235.00
2019-05-25T10:10:58.798Z,97238.00
2019-05-25T10:13:30.002Z,97246.00
2019-05-25T10:16:01.214Z,97235.00
2019-05-25T10:18:32.609Z,97240.00
2019-05-25T10:21:04.161Z,97240.00
2019-05-25T10:23:35.638Z,97237.00
2019-05-25T10:26:07.283Z,97240.00
2019-05-25T10:28:38.542Z,97249.00
2019-05-25T10:31:09.850Z,97231.00
2019-05-25T10:33:41.038Z,97239.00
2019-05-25T10:36:12.954Z,97235.00
2019-05-25T10:38:45.113Z,97244.00
2019-05-25T10:41:16.331Z,97182.00
2019-05-25T10:43:47.847Z,97246.00
2019-05-25T10:46:19.173Z,97242.00
2019-05-25T10:48:50.842Z,97246.00
2019-05-25T10:51:22.148Z,97233.00
2019-05-25T10:53:53.391Z,97228.00
2019-05-25T10:56:24.609Z,97229.00
2019-05-25T10:58:55.821Z,97233.00
2019-05-25T11:01:27.188Z,97235.00
2019-05-25T11:03:58.474Z,97230.00
2019-05-25T11:06:29.783Z,97236.00
2019-05-25T11:09:00.996Z,97234.00
2019-05-25T11:11:33.084Z,97252.00
2019-05-25T11:14:04.359Z,97266.00
2019-05-25T11:16:35.689Z,97270.00
2019-05-25T11:19:07.331Z,97275.00
2019-05-25T11:21:38.904Z,97276.00
2019-05-25T11:24:10.160Z,97264.00
2019-05-25T11:26:41.466Z,97267.00
2019-05-25T11:29:12.733Z,97260.00
2019-05-25T11:31:53.967Z,97255.00
2019-05-25T11:34:17.062Z,97242.00
2019-05-25T11:36:48.714Z,97239.00
2019-05-25T11:39:19.937Z,97244.00
2019-05-25T11:41:51.248Z,97243.00
2019-05-25T11:44:22.524Z,97238.00
2019-05-25T11:46:54.094Z,97245.00
2019-05-25T11:49:25.972Z,97238.00
2019-05-25T11:51:57.285Z,97252.00
2019-05-25T11:54:28.532Z,97246.00
2019-05-25T11:57:00.508Z,97244.00
2019-05-25T11:59:32.175Z,97236.00
2019-05-25T12:02:03.469Z,97243.00
2019-05-25T12:04:35.759Z,97240.00
2019-05-25T12:07:07.061Z,97234.00
2019-05-25T12:09:39.328Z,97231.00
2019-05-25T12:12:10.636Z,97232.00
2019-05-25T12:14:42.297Z,97237.00
2019-05-25T12:17:13.550Z,97236.00
2019-05-25T12:19:44.758Z,97231.00
2019-05-25T12:22:16.052Z,97228.00
2019-05-25T12:24:47.185Z,97231.00
2019-05-25T12:27:18.492Z,97224.00
2019-05-25T12:29:49.710Z,97234.00
2019-05-25T12:32:22.378Z,97233.00
2019-05-25T12:34:54.448Z,97242.00
2019-05-25T12:37:25.708Z,97243.00
2019-05-25T12:39:56.941Z,97241.00
2019-05-25T12:42:28.175Z,97235.00
2019-05-25T12:44:59.496Z,97240.00
2019-05-25T12:47:30.830Z,97241.00
2019-05-25T12:50:02.519Z,97246.00
2019-05-25T12:52:33.745Z,97241.00
2019-05-25T12:55:05.187Z,97237.00
2019-05-25T12:57:36.554Z,97243.00
2019-05-25T13:00:15.718Z,97262.00
2019-05-25T13:02:41.678Z,97258.00
2019-05-25T13:05:13.697Z,97261.00
2019-05-25T13:07:45.031Z,97264.00
2019-05-25T13:10:16.705Z,97265.00
2019-05-25T13:12:48.095Z,97278.00
2019-05-25T13:15:19.958Z,97267.00
2019-05-25T13:17:51.162Z,97268.00
2019-05-25T13:20:22.343Z,97277.00
2019-05-25T13:22:53.722Z,97274.00
2019-05-25T13:25:25.020Z,97269.00
2019-05-25T13:27:56.360Z,97275.00
2019-05-25T13:30:27.744Z,97283.00
2019-05-25T13:32:59.381Z,97281.00
2019-05-25T13:35:30.669Z,97276.00
2019-05-25T13:38:01.886Z,97279.00
2019-05-25T13:40:33.235Z,97270.00
2019-05-25T13:43:04.482Z,97267.00
2019-05-25T13:45:35.754Z,97257.00
2019-05-25T13:48:07.055Z,97258.00
2019-05-25T13:50:38.385Z,97265.00
2019-05-25T13:53:09.847Z,97249.00
2019-05-25T13:55:41.051Z,97248.00
2019-05-25T13:58:13.698Z,97258.00
2019-05-25T14:00:44.875Z,97258.00
2019-05-25T14:03:16.102Z,97247.00
2019-05-25T14:05:47.706Z,97242.00
2019-05-25T14:08:19.303Z,97243.00
2019-05-25T14:10:50.563Z,97243.00
2019-05-25T14:13:22.156Z,97243.00
2019-05-25T14:16:06.224Z,97245.00
2019-05-25T14:18:26.352Z,97232.00
2019-05-25T14:20:57.604Z,97231.00
2019-05-25T14:23:29.249Z,97236.00
2019-05-25T14:26:01.120Z,97234.00
2019-05-25T14:28:32.452Z,97227.00
2019-05-25T14:31:03.727Z,97227.00
2019-05-25T14:33:34.910Z,97212.00
2019-05-25T14:36:06.361Z,97201.00
2019-05-25T14:38:37.525Z,97201.00
2019-05-25T14:41:09.395Z,97194.00
2019-05-25T14:43:40.705Z,97186.00
2019-05-25T14:46:26.904Z,97192.00
2019-05-25T14:48:45.921Z,97193.00
2019-05-25T14:51:17.086Z,97191.00
2019-05-25T14:53:48.598Z,97199.00
2019-05-25T14:56:19.884Z,97203.00
2019-05-25T14:58:51.500Z,97196.00
2019-05-25T15:01:22.975Z,97199.00
2019-05-25T15:03:54.348Z,97205.00
2019-05-25T15:06:25.843Z,97209.00
2019-05-25T15:08:57.079Z,97216.00
2019-05-25T15:11:28.402Z,97216.00
2019-05-25T15:14:00.146Z,97219.00
2019-05-25T15:16:31.414Z,97239.00
2019-05-25T15:19:03.934Z,97226.00
2019-05-25T15:21:35.858Z,97222.00
2019-05-25T15:24:07.764Z,97234.00
2019-05-25T15:26:40.128Z,97238.00
2019-05-25T15:29:12.516Z,97222.00
2019-05-25T15:31:44.444Z,97221.00
2019-05-25T15:34:17.305Z,97230.00
2019-05-25T15:36:48.876Z,97222.00
2019-05-25T15:39:20.638Z,97216.00
2019-05-25T15:41:51.916Z,97217.00
2019-05-25T15:44:23.530Z,97222.00
2019-05-25T15:46:54.879Z,97209.00
2019-05-25T15:49:33.496Z,97213.00
2019-05-25T15:51:59.118Z,97213.00
2019-05-25T15:54:30.675Z,97211.00
2019-05-25T15:57:02.327Z,97216.00
2019-05-25T15:59:33.773Z,97214.00
2019-05-25T16:02:06.148Z,97207.00
2019-05-25T16:04:37.795Z,97211.00
2019-05-25T16:07:09.321Z,97210.00
2019-05-25T16:09:41.792Z,97205.00
2019-05-25T16:12:13.478Z,97217.00
2019-05-25T16:14:44.594Z,97205.00
2019-05-25T16:17:15.793Z,97207.00
2019-05-25T16:19:47.072Z,97202.00
2019-05-25T16:22:18.317Z,97200.00
2019-05-25T16:24:49.527Z,97202.00
2019-05-25T16:27:20.740Z,97217.00
2019-05-25T16:29:52.021Z,97210.00
2019-05-25T16:32:23.477Z,97213.00
2019-05-25T16:34:55.062Z,97218.00
2019-05-25T16:37:26.497Z,97217.00
2019-05-25T16:39:57.759Z,97216.00
2019-05-25T16:42:29.518Z,97224.00
2019-05-25T16:45:05.327Z,97228.00
2019-05-25T16:47:34.251Z,97228.00
2019-05-25T16:50:06.335Z,97224.00
2019-05-25T16:52:37.707Z,97232.00
2019-05-25T16:55:10.283Z,97221.00
2019-05-25T16:57:44.013Z,97226.00
2019-05-25T17:00:19.974Z,97230.00
2019-05-25T17:02:51.275Z,97230.00
2019-05-25T17:05:22.876Z,97229.00
2019-05-25T17:07:54.380Z,97225.00
2019-05-25T17:10:25.735Z,97228.00
2019-05-25T17:12:57.037Z,97224.00
2019-05-25T17:15:28.608Z,97237.00
2019-05-25T17:18:04.380Z,97235.00
2019-05-25T17:20:33.362Z,97235.00
2019-05-25T17:23:04.748Z,97227.00
2019-05-25T17:25:35.967Z,97234.00
2019-05-25T17:28:07.633Z,97234.00
2019-05-25T17:30:43.158Z,97253.00
2019-05-25T17:33:15.291Z,97237.00
2019-05-25T17:35:46.586Z,97244.00
2019-05-25T17:38:18.682Z,97242.00
2019-05-25T17:40:51.505Z,97252.00
2019-05-25T17:43:23.216Z,97243.00
2019-05-25T17:45:54.782Z,97237.00
2019-05-25T17:48:26.128Z,97241.00
2019-05-25T17:50:57.751Z,97243.00
2019-05-25T17:53:29.514Z,97241.00
2019-05-25T17:56:01.103Z,97240.00
2019-05-25T17:58:32.442Z,97245.00
2019-05-25T18:01:03.813Z,97242.00
2019-05-25T18:03:35.006Z,97238.00
2019-05-25T18:06:06.689Z,97235.00
2019-05-25T18:08:38.417Z,97246.00
2019-05-25T18:11:10.276Z,97240.00
2019-05-25T18:13:41.949Z,97236.00
2019-05-25T18:16:13.538Z,97233.00
2019-05-25T18:18:45.353Z,97239.00
2019-05-25T18:21:16.636Z,97241.00
2019-05-25T18:23:48.553Z,97239.00
2019-05-25T18:26:19.917Z,97241.00
2019-05-25T18:28:51.565Z,97244.00
2019-05-25T18:31:22.914Z,97240.00
2019-05-25T18:33:54.088Z,97239.00
2019-05-25T18:36:25.573Z,97244.00
2019-05-25T18:38:57.033Z,97252.00
2019-05-25T18:41:28.730Z,97245.00
2019-05-25T18:44:00.062Z,97247.00
2019-05-25T18:46:31.274Z,97244.00
2019-05-25T18:49:02.862Z,97245.00
2019-05-25T18:51:34.266Z,97253.00
2019-05-25T18:54:05.512Z,97255.00
2019-05-25T18:56:37.002Z,97252.00
2019-05-25T18:59:09.294Z,97255.00
2019-05-25T19:01:40.743Z,97254.00
2019-05-25T19:04:12.073Z,97256.00
2019-05-25T19:06:43.759Z,97261.00
2019-05-25T19:09:15.373Z,97257.00
2019-05-25T19:11:46.651Z,97269.00
2019-05-25T19:14:19.307Z,97272.00
2019-05-25T19:16:50.867Z,97259.00
2019-05-25T19:19:22.029Z,97275.00
2019-05-25T19:21:53.382Z,97268.00
2019-05-25T19:24:25.010Z,97275.00
2019-05-25T19:26:56.148Z,97268.00
2019-05-25T19:29:27.378Z,97267.00
2019-05-25T19:32:00.041Z,97275.00
2019-05-25T19:34:32.841Z,97283.00
2019-05-25T19:37:04.147Z,97277.00
2019-05-25T19:39:35.944Z,97279.00
2019-05-25T19:42:07.209Z,97283.00
2019-05-25T19:44:39.611Z,97287.00
2019-05-25T19:47:11.133Z,97290.00
2019-05-25T19:49:42.350Z,97300.00
2019-05-25T19:52:14.033Z,97296.00
2019-05-25T19:54:45.357Z,97295.00
2019-05-25T19:57:16.917Z,97293.00
2019-05-25T19:59:48.151Z,97300.00
2019-05-25T20:02:19.431Z,97302.00
2019-05-25T20:04:50.982Z,97312.00
2019-05-25T20:07:22.274Z,97316.00
2019-05-25T20:09:54.268Z,97314.00
2019-05-25T20:12:25.925Z,97319.00
2019-05-25T20:14:57.086Z,97336.00
